sensor_id;sensor_type;location;lat;lon;timestamp;pressure;altitude;pressure_sealevel;temperature;humidity
44734;BME280;30462;52.446;-1.930;2023-05-19T00:00:18;101357.5664;;;;
44734;BME280;30462;52.446;-1.930;2023-05-19T00:01:18;101355.3555;;;;
44734;BME280;30462;52.446;-1.930;2023-05-19T00:02:18;101354.4727;;;;
44734;BME280;30462;52.446;-1.930;2023-05-19T00:03:17;101352.9375;;;;
44734;BME280;30462;52.446;-1.930;2023-05-19T00:04:18;101354.6367;;;;
44734;BME280;30462;52.446;-1.930;2023-05-19T00:05:18;101351.1445;;;;
44734;BME280;30462;52.446;-1.930;2023-05-19T00:07:17;101352.0742;;;;
44734;BME280;30462;52.446;-1.930;2023-05-19T00:08:18;101348.0469;;;;
44734;BME280;30462;52.446;-1.930;2023-05-19T00:09:18;101349.4648;;;;
44734;BME280;30462;52.446;-1.930;2023-05-19T00:10:18;101344.6289;;;;
44734;BME280;30462;52.446;-1.930;2023-05-19T00:11:18;101345.9531;;;;
44734;BME280;30462;52.446;-1.930;2023-05-19T00:12:18;101343.4063;;;;
44734;BME280;30462;52.446;-1.930;2023-05-19T00:13:18;101345.3477;;;;
44734;BME280;30462;52.446;-1.930;2023-05-19T00:14:19;101343.457;;;;
44734;BME280;30462;52.446;-1.930;2023-05-19T00:15:18;101343.9063;;;;
44734;BME280;30462;52.446;-1.930;2023-05-19T00:16:17;101342.8281;;;;
44734;BME280;30462;52.446;-1.930;2023-05-19T00:17:18;101343.6758;;;;
44734;BME280;30462;52.446;-1.930;2023-05-19T00:18:18;101346.3594;;;;
44734;BME280;30462;52.446;-1.930;2023-05-19T00:19:17;101346.5273;;;;
44734;BME280;30462;52.446;-1.930;2023-05-19T00:20:18;101342.0234;;;;
44734;BME280;30462;52.446;-1.930;2023-05-19T00:21:18;101340.8516;;;;
44734;BME280;30462;52.446;-1.930;2023-05-19T00:22:17;101342.1328;;;;
44734;BME280;30462;52.446;-1.930;2023-05-19T00:23:18;101342.9414;;;;
44734;BME280;30462;52.446;-1.930;2023-05-19T00:24:18;101338.4883;;;;
44734;BME280;30462;52.446;-1.930;2023-05-19T00:25:18;101343.6914;;;;
44734;BME280;30462;52.446;-1.930;2023-05-19T00:26:18;101341.1055;;;;
44734;BME280;30462;52.446;-1.930;2023-05-19T00:27:17;101341.5313;;;;
44734;BME280;30462;52.446;-1.930;2023-05-19T00:28:17;101340.6133;;;;
44734;BME280;30462;52.446;-1.930;2023-05-19T00:29:18;101340.5;;;;
44734;BME280;30462;52.446;-1.930;2023-05-19T00:30:18;101341.5547;;;;
44734;BME280;30462;52.446;-1.930;2023-05-19T00:31:17;101340.3945;;;;
44734;BME280;30462;52.446;-1.930;2023-05-19T00:32:18;101336.3203;;;;
44734;BME280;30462;52.446;-1.930;2023-05-19T00:33:18;101337.6445;;;;
44734;BME280;30462;52.446;-1.930;2023-05-19T00:34:18;101339.1406;;;;
44734;BME280;30462;52.446;-1.930;2023-05-19T00:35:18;101341.5469;;;;
44734;BME280;30462;52.446;-1.930;2023-05-19T00:36:18;101341.2266;;;;
44734;BME280;30462;52.446;-1.930;2023-05-19T00:37:18;101340.7266;;;;
44734;BME280;30462;52.446;-1.930;2023-05-19T00:38:18;101337.7031;;;;
44734;BME280;30462;52.446;-1.930;2023-05-19T00:39:18;101340.293;;;;
44734;BME280;30462;52.446;-1.930;2023-05-19T00:40:17;101336.1445;;;;
44734;BME280;30462;52.446;-1.930;2023-05-19T00:41:18;101331.9727;;;;
44734;BME280;30462;52.446;-1.930;2023-05-19T00:42:17;101332.9258;;;;
44734;BME280;30462;52.446;-1.930;2023-05-19T00:43:18;101334.1875;;;;
44734;BME280;30462;52.446;-1.930;2023-05-19T00:44:17;101332.5938;;;;
44734;BME280;30462;52.446;-1.930;2023-05-19T00:45:17;101337.3008;;;;
44734;BME280;30462;52.446;-1.930;2023-05-19T00:46:17;101334.8203;;;;
44734;BME280;30462;52.446;-1.930;2023-05-19T00:47:17;101336.4727;;;;
44734;BME280;30462;52.446;-1.930;2023-05-19T00:48:18;101336.9727;;;;
44734;BME280;30462;52.446;-1.930;2023-05-19T00:49:18;101340.6523;;;;
44734;BME280;30462;52.446;-1.930;2023-05-19T00:50:18;101338.0664;;;;
44734;BME280;30462;52.446;-1.930;2023-05-19T00:51:18;101335.4766;;;;
44734;BME280;30462;52.446;-1.930;2023-05-19T00:52:18;101339.3945;;;;
44734;BME280;30462;52.446;-1.930;2023-05-19T00:53:18;101343.0664;;;;
44734;BME280;30462;52.446;-1.930;2023-05-19T00:54:18;101339.4961;;;;
44734;BME280;30462;52.446;-1.930;2023-05-19T00:55:18;101340.8125;;;;
44734;BME280;30462;52.446;-1.930;2023-05-19T00:56:18;101342.1055;;;;
44734;BME280;30462;52.446;-1.930;2023-05-19T00:57:18;101344.1367;;;;
44734;BME280;30462;52.446;-1.930;2023-05-19T00:58:18;101343.0977;;;;
44734;BME280;30462;52.446;-1.930;2023-05-19T00:59:18;101341.3203;;;;
44734;BME280;30462;52.446;-1.930;2023-05-19T01:00:19;101342.6914;;;;
44734;BME280;30462;52.446;-1.930;2023-05-19T01:01:18;101339.9688;;;;
44734;BME280;30462;52.446;-1.930;2023-05-19T01:02:18;101342.6602;;;;
44734;BME280;30462;52.446;-1.930;2023-05-19T01:03:18;101338.9141;;;;
44734;BME280;30462;52.446;-1.930;2023-05-19T01:04:18;101336.5117;;;;
44734;BME280;30462;52.446;-1.930;2023-05-19T01:05:18;101337.7305;;;;
44734;BME280;30462;52.446;-1.930;2023-05-19T01:06:18;101338.8008;;;;
44734;BME280;30462;52.446;-1.930;2023-05-19T01:07:18;101337.3555;;;;
44734;BME280;30462;52.446;-1.930;2023-05-19T01:08:18;101342.4492;;;;
44734;BME280;30462;52.446;-1.930;2023-05-19T01:09:18;101343.6211;;;;
44734;BME280;30462;52.446;-1.930;2023-05-19T01:10:18;101343.6133;;;;
44734;BME280;30462;52.446;-1.930;2023-05-19T01:11:18;101345.3789;;;;
44734;BME280;30462;52.446;-1.930;2023-05-19T01:12:18;101345.3047;;;;
44734;BME280;30462;52.446;-1.930;2023-05-19T01:13:18;101343.8789;;;;
44734;BME280;30462;52.446;-1.930;2023-05-19T01:14:18;101342.6172;;;;
44734;BME280;30462;52.446;-1.930;2023-05-19T01:15:18;101342.6758;;;;
44734;BME280;30462;52.446;-1.930;2023-05-19T01:16:23;101339.7578;;;;
44734;BME280;30462;52.446;-1.930;2023-05-19T01:17:18;101340.918;;;;
44734;BME280;30462;52.446;-1.930;2023-05-19T01:18:19;101341.9727;;;;
44734;BME280;30462;52.446;-1.930;2023-05-19T01:20:19;101343.7188;;;;
44734;BME280;30462;52.446;-1.930;2023-05-19T01:31:18;101333.668;;;;
44734;BME280;30462;52.446;-1.930;2023-05-19T01:32:18;101338.1953;;;;
44734;BME280;30462;52.446;-1.930;2023-05-19T01:33:18;101337.6211;;;;
44734;BME280;30462;52.446;-1.930;2023-05-19T01:34:18;101335.9609;;;;
44734;BME280;30462;52.446;-1.930;2023-05-19T01:35:18;101338.8828;;;;
44734;BME280;30462;52.446;-1.930;2023-05-19T01:36:18;101332.7656;;;;
44734;BME280;30462;52.446;-1.930;2023-05-19T01:37:17;101335.8008;;;;
44734;BME280;30462;52.446;-1.930;2023-05-19T01:38:18;101338.3203;;;;
44734;BME280;30462;52.446;-1.930;2023-05-19T01:39:18;101340.4648;;;;
44734;BME280;30462;52.446;-1.930;2023-05-19T01:40:18;101335.9648;;;;
44734;BME280;30462;52.446;-1.930;2023-05-19T01:41:18;101337.3516;;;;
44734;BME280;30462;52.446;-1.930;2023-05-19T01:42:18;101336.0313;;;;
44734;BME280;30462;52.446;-1.930;2023-05-19T01:43:18;101335.0859;;;;
44734;BME280;30462;52.446;-1.930;2023-05-19T01:44:20;101334.3828;;;;
44734;BME280;30462;52.446;-1.930;2023-05-19T01:45:18;101338.418;;;;
44734;BME280;30462;52.446;-1.930;2023-05-19T01:46:18;101338.3359;;;;
44734;BME280;30462;52.446;-1.930;2023-05-19T01:47:18;101335.3789;;;;
44734;BME280;30462;52.446;-1.930;2023-05-19T01:48:18;101334.8242;;;;
44734;BME280;30462;52.446;-1.930;2023-05-19T01:49:17;101330.3594;;;;
44734;BME280;30462;52.446;-1.930;2023-05-19T01:50:17;101328.8203;;;;
44734;BME280;30462;52.446;-1.930;2023-05-19T01:51:18;101328.2852;;;;
44734;BME280;30462;52.446;-1.930;2023-05-19T01:52:17;101326.7617;;;;
44734;BME280;30462;52.446;-1.930;2023-05-19T01:53:17;101321.1992;;;;
44734;BME280;30462;52.446;-1.930;2023-05-19T01:54:17;101324.8984;;;;
44734;BME280;30462;52.446;-1.930;2023-05-19T01:55:18;101320.6523;;;;
44734;BME280;30462;52.446;-1.930;2023-05-19T01:56:19;101322.1523;;;;
44734;BME280;30462;52.446;-1.930;2023-05-19T01:57:20;101317.4648;;;;
44734;BME280;30462;52.446;-1.930;2023-05-19T01:58:21;101316.375;;;;
44734;BME280;30462;52.446;-1.930;2023-05-19T01:59:25;101312.4805;;;;
44734;BME280;30462;52.446;-1.930;2023-05-19T02:00:23;101311.0469;;;;
44734;BME280;30462;52.446;-1.930;2023-05-19T02:01:21;101312.5234;;;;
44734;BME280;30462;52.446;-1.930;2023-05-19T02:02:20;101312.5742;;;;
44734;BME280;30462;52.446;-1.930;2023-05-19T02:04:18;101313.1719;;;;
44734;BME280;30462;52.446;-1.930;2023-05-19T02:05:20;101310.4141;;;;
44734;BME280;30462;52.446;-1.930;2023-05-19T02:07:21;101310.4102;;;;
44734;BME280;30462;52.446;-1.930;2023-05-19T02:08:20;101310.8516;;;;
44734;BME280;30462;52.446;-1.930;2023-05-19T02:09:20;101307.2227;;;;
44734;BME280;30462;52.446;-1.930;2023-05-19T02:10:21;101310.957;;;;
44734;BME280;30462;52.446;-1.930;2023-05-19T02:11:18;101313.6641;;;;
44734;BME280;30462;52.446;-1.930;2023-05-19T02:12:23;101308.9922;;;;
44734;BME280;30462;52.446;-1.930;2023-05-19T02:13:19;101311.3711;;;;
44734;BME280;30462;52.446;-1.930;2023-05-19T02:14:19;101314.7266;;;;
44734;BME280;30462;52.446;-1.930;2023-05-19T02:15:19;101313.3359;;;;
44734;BME280;30462;52.446;-1.930;2023-05-19T02:16:18;101312.3398;;;;
44734;BME280;30462;52.446;-1.930;2023-05-19T02:17:18;101313.2305;;;;
44734;BME280;30462;52.446;-1.930;2023-05-19T02:18:17;101313.5703;;;;
44734;BME280;30462;52.446;-1.930;2023-05-19T02:19:21;101314.168;;;;
44734;BME280;30462;52.446;-1.930;2023-05-19T02:20:18;101317.5195;;;;
44734;BME280;30462;52.446;-1.930;2023-05-19T02:21:17;101319.4609;;;;
44734;BME280;30462;52.446;-1.930;2023-05-19T02:22:18;101315.0859;;;;
44734;BME280;30462;52.446;-1.930;2023-05-19T02:23:18;101314.793;;;;
44734;BME280;30462;52.446;-1.930;2023-05-19T02:24:18;101313.5938;;;;
44734;BME280;30462;52.446;-1.930;2023-05-19T02:25:18;101313.3711;;;;
44734;BME280;30462;52.446;-1.930;2023-05-19T02:26:18;101313.3008;;;;
44734;BME280;30462;52.446;-1.930;2023-05-19T02:27:18;101315.7539;;;;
44734;BME280;30462;52.446;-1.930;2023-05-19T02:28:17;101316.8242;;;;
44734;BME280;30462;52.446;-1.930;2023-05-19T02:29:18;101313.7969;;;;
44734;BME280;30462;52.446;-1.930;2023-05-19T02:30:18;101315.207;;;;
44734;BME280;30462;52.446;-1.930;2023-05-19T02:31:18;101317.5117;;;;
44734;BME280;30462;52.446;-1.930;2023-05-19T02:32:19;101314.4727;;;;
44734;BME280;30462;52.446;-1.930;2023-05-19T02:33:18;101315.8438;;;;
44734;BME280;30462;52.446;-1.930;2023-05-19T02:34:18;101315.9922;;;;
44734;BME280;30462;52.446;-1.930;2023-05-19T02:35:18;101314.4219;;;;
44734;BME280;30462;52.446;-1.930;2023-05-19T02:36:17;101316.8281;;;;
44734;BME280;30462;52.446;-1.930;2023-05-19T02:37:18;101317.2539;;;;
44734;BME280;30462;52.446;-1.930;2023-05-19T02:38:18;101314.4922;;;;
44734;BME280;30462;52.446;-1.930;2023-05-19T02:39:18;101314.1992;;;;
44734;BME280;30462;52.446;-1.930;2023-05-19T02:40:18;101316.4492;;;;
44734;BME280;30462;52.446;-1.930;2023-05-19T02:41:18;101317.2031;;;;
44734;BME280;30462;52.446;-1.930;2023-05-19T02:42:18;101316.7656;;;;
44734;BME280;30462;52.446;-1.930;2023-05-19T02:43:17;101313.7461;;;;
44734;BME280;30462;52.446;-1.930;2023-05-19T02:44:18;101313.832;;;;
44734;BME280;30462;52.446;-1.930;2023-05-19T02:45:18;101316.6758;;;;
44734;BME280;30462;52.446;-1.930;2023-05-19T02:46:18;101317.7109;;;;
44734;BME280;30462;52.446;-1.930;2023-05-19T02:47:18;101316.9375;;;;
44734;BME280;30462;52.446;-1.930;2023-05-19T02:48:17;101318.3516;;;;
44734;BME280;30462;52.446;-1.930;2023-05-19T02:49:18;101318.3203;;;;
44734;BME280;30462;52.446;-1.930;2023-05-19T02:50:18;101316.9766;;;;
44734;BME280;30462;52.446;-1.930;2023-05-19T02:51:18;101316.0742;;;;
44734;BME280;30462;52.446;-1.930;2023-05-19T02:52:17;101316.1758;;;;
44734;BME280;30462;52.446;-1.930;2023-05-19T02:53:18;101317.5273;;;;
44734;BME280;30462;52.446;-1.930;2023-05-19T02:54:18;101312.8906;;;;
44734;BME280;30462;52.446;-1.930;2023-05-19T02:55:19;101313.8281;;;;
44734;BME280;30462;52.446;-1.930;2023-05-19T02:56:18;101314.582;;;;
44734;BME280;30462;52.446;-1.930;2023-05-19T02:57:17;101313.0039;;;;
44734;BME280;30462;52.446;-1.930;2023-05-19T02:58:18;101311.7383;;;;
44734;BME280;30462;52.446;-1.930;2023-05-19T02:59:18;101314.5;;;;
44734;BME280;30462;52.446;-1.930;2023-05-19T03:00:18;101314.3945;;;;
44734;BME280;30462;52.446;-1.930;2023-05-19T03:01:18;101315.5391;;;;
44734;BME280;30462;52.446;-1.930;2023-05-19T03:02:18;101316.3398;;;;
44734;BME280;30462;52.446;-1.930;2023-05-19T03:03:17;101314.1758;;;;
44734;BME280;30462;52.446;-1.930;2023-05-19T03:04:18;101316.2813;;;;
44734;BME280;30462;52.446;-1.930;2023-05-19T03:05:18;101319.207;;;;
44734;BME280;30462;52.446;-1.930;2023-05-19T03:06:18;101320.3359;;;;
44734;BME280;30462;52.446;-1.930;2023-05-19T03:07:18;101325.1328;;;;
44734;BME280;30462;52.446;-1.930;2023-05-19T03:08:17;101328.8984;;;;
44734;BME280;30462;52.446;-1.930;2023-05-19T03:09:17;101330.6367;;;;
44734;BME280;30462;52.446;-1.930;2023-05-19T03:10:18;101331.5352;;;;
44734;BME280;30462;52.446;-1.930;2023-05-19T03:11:18;101331.3164;;;;
44734;BME280;30462;52.446;-1.930;2023-05-19T03:12:18;101334.3945;;;;
44734;BME280;30462;52.446;-1.930;2023-05-19T03:13:18;101334.3867;;;;
44734;BME280;30462;52.446;-1.930;2023-05-19T03:14:18;101334.0742;;;;
44734;BME280;30462;52.446;-1.930;2023-05-19T03:15:17;101334.2539;;;;
44734;BME280;30462;52.446;-1.930;2023-05-19T03:16:18;101336.3359;;;;
44734;BME280;30462;52.446;-1.930;2023-05-19T03:17:18;101335.168;;;;
44734;BME280;30462;52.446;-1.930;2023-05-19T03:18:18;101341.0391;;;;
44734;BME280;30462;52.446;-1.930;2023-05-19T03:20:17;101336.8516;;;;
44734;BME280;30462;52.446;-1.930;2023-05-19T03:21:18;101339.4922;;;;
44734;BME280;30462;52.446;-1.930;2023-05-19T03:22:18;101334.9766;;;;
44734;BME280;30462;52.446;-1.930;2023-05-19T03:23:18;101331.7852;;;;
44734;BME280;30462;52.446;-1.930;2023-05-19T03:24:17;101334.7578;;;;
44734;BME280;30462;52.446;-1.930;2023-05-19T03:25:18;101336.4883;;;;
44734;BME280;30462;52.446;-1.930;2023-05-19T03:26:19;101340.5703;;;;
44734;BME280;30462;52.446;-1.930;2023-05-19T03:27:17;101338.2578;;;;
44734;BME280;30462;52.446;-1.930;2023-05-19T03:28:18;101340.0117;;;;
44734;BME280;30462;52.446;-1.930;2023-05-19T03:29:18;101338.3398;;;;
44734;BME280;30462;52.446;-1.930;2023-05-19T03:30:18;101340.9219;;;;
44734;BME280;30462;52.446;-1.930;2023-05-19T03:31:18;101336.5352;;;;
44734;BME280;30462;52.446;-1.930;2023-05-19T03:32:17;101339.3789;;;;
44734;BME280;30462;52.446;-1.930;2023-05-19T03:33:17;101342.6641;;;;
44734;BME280;30462;52.446;-1.930;2023-05-19T03:34:18;101340.1484;;;;
44734;BME280;30462;52.446;-1.930;2023-05-19T03:35:18;101340.6445;;;;
44734;BME280;30462;52.446;-1.930;2023-05-19T03:36:18;101339.7891;;;;
44734;BME280;30462;52.446;-1.930;2023-05-19T03:37:18;101343.5781;;;;
44734;BME280;30462;52.446;-1.930;2023-05-19T03:38:18;101343.2617;;;;
44734;BME280;30462;52.446;-1.930;2023-05-19T03:39:18;101343.543;;;;
44734;BME280;30462;52.446;-1.930;2023-05-19T03:40:18;101343.125;;;;
44734;BME280;30462;52.446;-1.930;2023-05-19T03:41:17;101343.6484;;;;
44734;BME280;30462;52.446;-1.930;2023-05-19T03:42:18;101348.6016;;;;
44734;BME280;30462;52.446;-1.930;2023-05-19T03:43:18;101345.9531;;;;
44734;BME280;30462;52.446;-1.930;2023-05-19T03:44:18;101344.0508;;;;
44734;BME280;30462;52.446;-1.930;2023-05-19T03:45:18;101343.4492;;;;
44734;BME280;30462;52.446;-1.930;2023-05-19T03:46:18;101341.0273;;;;
44734;BME280;30462;52.446;-1.930;2023-05-19T03:47:17;101342.7852;;;;
44734;BME280;30462;52.446;-1.930;2023-05-19T03:48:18;101339.957;;;;
44734;BME280;30462;52.446;-1.930;2023-05-19T03:49:18;101340.8672;;;;
44734;BME280;30462;52.446;-1.930;2023-05-19T03:50:18;101342.4141;;;;
44734;BME280;30462;52.446;-1.930;2023-05-19T03:51:18;101340.7656;;;;
44734;BME280;30462;52.446;-1.930;2023-05-19T03:52:18;101340.25;;;;
44734;BME280;30462;52.446;-1.930;2023-05-19T03:53:18;101342.6641;;;;
44734;BME280;30462;52.446;-1.930;2023-05-19T03:54:18;101341.6211;;;;
44734;BME280;30462;52.446;-1.930;2023-05-19T03:55:17;101344.625;;;;
44734;BME280;30462;52.446;-1.930;2023-05-19T03:56:17;101345.9297;;;;
44734;BME280;30462;52.446;-1.930;2023-05-19T03:57:18;101345.918;;;;
44734;BME280;30462;52.446;-1.930;2023-05-19T03:58:18;101348.5977;;;;
44734;BME280;30462;52.446;-1.930;2023-05-19T03:59:18;101349.5039;;;;
44734;BME280;30462;52.446;-1.930;2023-05-19T04:00:18;101348.7422;;;;
44734;BME280;30462;52.446;-1.930;2023-05-19T04:01:18;101353.0273;;;;
44734;BME280;30462;52.446;-1.930;2023-05-19T04:02:18;101353.2813;;;;
44734;BME280;30462;52.446;-1.930;2023-05-19T04:03:18;101357.3867;;;;
44734;BME280;30462;52.446;-1.930;2023-05-19T04:04:18;101358.1602;;;;
44734;BME280;30462;52.446;-1.930;2023-05-19T04:05:18;101362.9141;;;;
44734;BME280;30462;52.446;-1.930;2023-05-19T04:06:17;101363.7031;;;;
44734;BME280;30462;52.446;-1.930;2023-05-19T04:07:18;101364.6133;;;;
44734;BME280;30462;52.446;-1.930;2023-05-19T04:08:18;101364.2227;;;;
44734;BME280;30462;52.446;-1.930;2023-05-19T04:09:18;101359.1406;;;;
44734;BME280;30462;52.446;-1.930;2023-05-19T04:10:18;101355.3125;;;;
44734;BME280;30462;52.446;-1.930;2023-05-19T04:11:18;101354.5898;;;;
44734;BME280;30462;52.446;-1.930;2023-05-19T04:12:17;101350.4961;;;;
44734;BME280;30462;52.446;-1.930;2023-05-19T04:13:17;101351.1055;;;;
44734;BME280;30462;52.446;-1.930;2023-05-19T04:14:18;101347.0195;;;;
44734;BME280;30462;52.446;-1.930;2023-05-19T04:15:18;101347.5117;;;;
44734;BME280;30462;52.446;-1.930;2023-05-19T04:16:18;101345.1914;;;;
44734;BME280;30462;52.446;-1.930;2023-05-19T04:17:18;101343.8008;;;;
44734;BME280;30462;52.446;-1.930;2023-05-19T04:18:17;101340.1797;;;;
44734;BME280;30462;52.446;-1.930;2023-05-19T04:19:18;101338.1055;;;;
44734;BME280;30462;52.446;-1.930;2023-05-19T04:20:17;101338.9297;;;;
44734;BME280;30462;52.446;-1.930;2023-05-19T04:21:18;101338.3086;;;;
44734;BME280;30462;52.446;-1.930;2023-05-19T04:22:18;101337.9453;;;;
44734;BME280;30462;52.446;-1.930;2023-05-19T04:23:18;101336.3828;;;;
44734;BME280;30462;52.446;-1.930;2023-05-19T04:24:18;101334.5703;;;;
44734;BME280;30462;52.446;-1.930;2023-05-19T04:25:17;101330.125;;;;
44734;BME280;30462;52.446;-1.930;2023-05-19T04:26:17;101330.7031;;;;
44734;BME280;30462;52.446;-1.930;2023-05-19T04:27:18;101334.0977;;;;
44734;BME280;30462;52.446;-1.930;2023-05-19T04:28:17;101333.8906;;;;
44734;BME280;30462;52.446;-1.930;2023-05-19T04:29:18;101328.7383;;;;
44734;BME280;30462;52.446;-1.930;2023-05-19T04:30:18;101325.168;;;;
44734;BME280;30462;52.446;-1.930;2023-05-19T04:31:18;101323.9844;;;;
44734;BME280;30462;52.446;-1.930;2023-05-19T04:32:18;101322.7695;;;;
44734;BME280;30462;52.446;-1.930;2023-05-19T04:33:18;101323.3281;;;;
44734;BME280;30462;52.446;-1.930;2023-05-19T04:34:17;101320.5469;;;;
44734;BME280;30462;52.446;-1.930;2023-05-19T04:35:18;101319.6641;;;;
44734;BME280;30462;52.446;-1.930;2023-05-19T04:36:18;101317.2656;;;;
44734;BME280;30462;52.446;-1.930;2023-05-19T04:37:18;101312.0625;;;;
44734;BME280;30462;52.446;-1.930;2023-05-19T04:38:18;101311.25;;;;
44734;BME280;30462;52.446;-1.930;2023-05-19T04:39:18;101308.5938;;;;
44734;BME280;30462;52.446;-1.930;2023-05-19T04:40:17;101308.168;;;;
44734;BME280;30462;52.446;-1.930;2023-05-19T04:41:17;101302.707;;;;
44734;BME280;30462;52.446;-1.930;2023-05-19T04:42:17;101304.293;;;;
44734;BME280;30462;52.446;-1.930;2023-05-19T04:43:18;101303.7227;;;;
44734;BME280;30462;52.446;-1.930;2023-05-19T04:44:18;101301.0469;;;;
44734;BME280;30462;52.446;-1.930;2023-05-19T04:45:18;101297.125;;;;
44734;BME280;30462;52.446;-1.930;2023-05-19T04:46:18;101297.3086;;;;
44734;BME280;30462;52.446;-1.930;2023-05-19T04:47:17;101296.0781;;;;
44734;BME280;30462;52.446;-1.930;2023-05-19T04:48:17;101298.1172;;;;
44734;BME280;30462;52.446;-1.930;2023-05-19T04:49:17;101300.1133;;;;
44734;BME280;30462;52.446;-1.930;2023-05-19T04:50:18;101306.0625;;;;
44734;BME280;30462;52.446;-1.930;2023-05-19T04:51:18;101308.043;;;;
44734;BME280;30462;52.446;-1.930;2023-05-19T04:52:18;101313.1602;;;;
44734;BME280;30462;52.446;-1.930;2023-05-19T04:53:18;101316.5;;;;
44734;BME280;30462;52.446;-1.930;2023-05-19T04:54:17;101318.582;;;;
44734;BME280;30462;52.446;-1.930;2023-05-19T04:55:18;101320.1992;;;;
44734;BME280;30462;52.446;-1.930;2023-05-19T04:56:18;101321.0078;;;;
44734;BME280;30462;52.446;-1.930;2023-05-19T04:57:18;101315.2617;;;;
44734;BME280;30462;52.446;-1.930;2023-05-19T04:58:18;101316.2617;;;;
44734;BME280;30462;52.446;-1.930;2023-05-19T04:59:17;101312.8984;;;;
44734;BME280;30462;52.446;-1.930;2023-05-19T05:00:19;101312.6953;;;;
44734;BME280;30462;52.446;-1.930;2023-05-19T05:01:18;101313.2031;;;;
44734;BME280;30462;52.446;-1.930;2023-05-19T05:02:18;101313.293;;;;
44734;BME280;30462;52.446;-1.930;2023-05-19T05:03:18;101311.2578;;;;
44734;BME280;30462;52.446;-1.930;2023-05-19T05:04:18;101309.1016;;;;
44734;BME280;30462;52.446;-1.930;2023-05-19T05:05:17;101308.0078;;;;
44734;BME280;30462;52.446;-1.930;2023-05-19T05:06:17;101310.1641;;;;
44734;BME280;30462;52.446;-1.930;2023-05-19T05:07:18;101311.4609;;;;
44734;BME280;30462;52.446;-1.930;2023-05-19T05:08:18;101311.418;;;;
44734;BME280;30462;52.446;-1.930;2023-05-19T05:09:18;101313.0664;;;;
44734;BME280;30462;52.446;-1.930;2023-05-19T05:10:17;101313.5898;;;;
44734;BME280;30462;52.446;-1.930;2023-05-19T05:11:18;101312.5391;;;;
44734;BME280;30462;52.446;-1.930;2023-05-19T05:12:18;101314.5273;;;;
44734;BME280;30462;52.446;-1.930;2023-05-19T05:13:19;101316.2305;;;;
44734;BME280;30462;52.446;-1.930;2023-05-19T05:14:18;101312.3711;;;;
44734;BME280;30462;52.446;-1.930;2023-05-19T05:15:18;101316.2188;;;;
44734;BME280;30462;52.446;-1.930;2023-05-19T05:16:17;101317.8789;;;;
44734;BME280;30462;52.446;-1.930;2023-05-19T05:17:18;101317.3711;;;;
44734;BME280;30462;52.446;-1.930;2023-05-19T05:18:18;101321.2266;;;;
44734;BME280;30462;52.446;-1.930;2023-05-19T05:19:18;101320.7852;;;;
44734;BME280;30462;52.446;-1.930;2023-05-19T05:20:18;101321.2852;;;;
44734;BME280;30462;52.446;-1.930;2023-05-19T05:21:18;101322.7461;;;;
44734;BME280;30462;52.446;-1.930;2023-05-19T05:22:18;101324.8906;;;;
44734;BME280;30462;52.446;-1.930;2023-05-19T05:23:18;101327.7578;;;;
44734;BME280;30462;52.446;-1.930;2023-05-19T05:24:18;101333.2695;;;;
44734;BME280;30462;52.446;-1.930;2023-05-19T05:25:18;101335.4961;;;;
44734;BME280;30462;52.446;-1.930;2023-05-19T05:26:18;101337.4883;;;;
44734;BME280;30462;52.446;-1.930;2023-05-19T05:27:18;101337.1758;;;;
44734;BME280;30462;52.446;-1.930;2023-05-19T05:28:18;101336.6953;;;;
44734;BME280;30462;52.446;-1.930;2023-05-19T05:29:18;101339.9727;;;;
44734;BME280;30462;52.446;-1.930;2023-05-19T05:30:18;101339.4063;;;;
44734;BME280;30462;52.446;-1.930;2023-05-19T05:31:18;101337.7109;;;;
44734;BME280;30462;52.446;-1.930;2023-05-19T05:32:18;101335.9883;;;;
44734;BME280;30462;52.446;-1.930;2023-05-19T05:33:17;101335.082;;;;
44734;BME280;30462;52.446;-1.930;2023-05-19T05:34:17;101335.0117;;;;
44734;BME280;30462;52.446;-1.930;2023-05-19T05:35:18;101334.1328;;;;
44734;BME280;30462;52.446;-1.930;2023-05-19T05:36:17;101332.5586;;;;
44734;BME280;30462;52.446;-1.930;2023-05-19T05:37:18;101333.9492;;;;
44734;BME280;30462;52.446;-1.930;2023-05-19T05:38:18;101336;;;;
44734;BME280;30462;52.446;-1.930;2023-05-19T05:39:18;101332.5977;;;;
44734;BME280;30462;52.446;-1.930;2023-05-19T05:40:18;101333.2773;;;;
44734;BME280;30462;52.446;-1.930;2023-05-19T05:41:18;101333.2344;;;;
44734;BME280;30462;52.446;-1.930;2023-05-19T05:42:18;101336.7188;;;;
44734;BME280;30462;52.446;-1.930;2023-05-19T05:43:18;101337.6641;;;;
44734;BME280;30462;52.446;-1.930;2023-05-19T05:44:17;101334.1406;;;;
44734;BME280;30462;52.446;-1.930;2023-05-19T05:45:18;101334.6719;;;;
44734;BME280;30462;52.446;-1.930;2023-05-19T05:46:18;101333.5859;;;;
44734;BME280;30462;52.446;-1.930;2023-05-19T05:47:18;101333.918;;;;
44734;BME280;30462;52.446;-1.930;2023-05-19T05:48:18;101331.8125;;;;
44734;BME280;30462;52.446;-1.930;2023-05-19T05:49:17;101331.9688;;;;
44734;BME280;30462;52.446;-1.930;2023-05-19T05:50:18;101335.5742;;;;
44734;BME280;30462;52.446;-1.930;2023-05-19T05:51:19;101338.4023;;;;
44734;BME280;30462;52.446;-1.930;2023-05-19T05:52:17;101342.6172;;;;
44734;BME280;30462;52.446;-1.930;2023-05-19T05:53:18;101339.875;;;;
44734;BME280;30462;52.446;-1.930;2023-05-19T05:54:19;101344.2539;;;;
44734;BME280;30462;52.446;-1.930;2023-05-19T05:55:18;101348.0117;;;;
44734;BME280;30462;52.446;-1.930;2023-05-19T05:56:18;101344.0391;;;;
44734;BME280;30462;52.446;-1.930;2023-05-19T05:57:18;101345.8984;;;;
44734;BME280;30462;52.446;-1.930;2023-05-19T05:58:18;101349.7422;;;;
44734;BME280;30462;52.446;-1.930;2023-05-19T05:59:18;101348.5156;;;;
44734;BME280;30462;52.446;-1.930;2023-05-19T06:00:18;101350.5898;;;;
44734;BME280;30462;52.446;-1.930;2023-05-19T06:01:18;101349.7422;;;;